Time;durP1;ratioP1;P1;durP2;ratioP2;P2;SDS_P1;SDS_P2;PMS_P1;PMS_P2;Temp;Humidity;BMP_temperature;BMP_pressure;BME280_temperature;BME280_humidity;BME280_pressure;Samples;Min_cycle;Max_cycle;Signal;HPM_P1;HPM_P2
2022/07/03 00:01:45;;;;;;;3.55;1.67;;;22.70;99.90;;;;;;1927063;73;21148;-79
2022/07/03 00:04:36;;;;;;;2.85;1.77;;;22.70;99.90;;;;;;1872645;74;21104;-78
2022/07/03 00:07:27;;;;;;;4.00;2.00;;;22.60;99.90;;;;;;1905436;74;21088;-78
2022/07/03 00:10:18;;;;;;;5.25;2.50;;;22.50;99.90;;;;;;1910599;74;21140;-77
2022/07/03 00:13:09;;;;;;;4.37;2.50;;;22.40;99.90;;;;;;1917675;74;21058;-78
2022/07/03 00:16:01;;;;;;;4.78;2.85;;;22.40;99.90;;;;;;1921834;74;21167;-78
2022/07/03 00:18:52;;;;;;;4.28;2.30;;;22.30;99.90;;;;;;1857300;76;21603;-78
2022/07/03 00:21:48;;;;;;;2.85;2.10;;;22.30;99.90;;;;;;1921820;74;21514;-78
2022/07/03 00:24:44;;;;;;;4.33;2.42;;;22.20;99.90;;;;;;1845613;77;21081;-77
2022/07/03 00:27:35;;;;;;;4.40;1.80;;;22.20;99.90;;;;;;1915667;74;21098;-77
2022/07/03 00:30:27;;;;;;;3.22;1.60;;;22.30;99.90;;;;;;1910573;74;21095;-77
2022/07/03 00:33:19;;;;;;;3.15;2.00;;;22.30;99.90;;;;;;1906096;74;21245;-77
2022/07/03 00:36:11;;;;;;;1.92;1.52;;;22.30;99.90;;;;;;1899974;75;21070;-77
2022/07/03 00:39:03;;;;;;;3.72;1.67;;;22.40;99.90;;;;;;1916459;74;21062;-77
2022/07/03 00:42:02;;;;;;;2.27;1.50;;;22.40;99.90;;;;;;1899791;74;21068;-77
2022/07/03 00:44:55;;;;;;;2.10;1.50;;;22.40;99.90;;;;;;1906888;74;21109;-77
2022/07/03 00:47:47;;;;;;;4.95;1.62;;;22.40;99.90;;;;;;1910701;74;21845;-76
2022/07/03 00:50:40;;;;;;;2.80;2.05;;;22.30;99.90;;;;;;1914274;74;21121;-76
2022/07/03 00:53:33;;;;;;;3.37;2.70;;;22.10;99.90;;;;;;1913741;74;21112;-76
2022/07/03 00:56:27;;;;;;;3.10;2.50;;;22.00;99.90;;;;;;1910615;74;21180;-77
2022/07/03 00:59:18;;;;;;;2.80;1.95;;;21.80;99.90;;;;;;1907015;74;21099;-77
2022/07/03 01:02:12;;;;;;;1.95;1.65;;;21.80;99.90;;;;;;1926316;73;21103;-77
2022/07/03 01:05:06;;;;;;;2.35;1.75;;;21.80;99.90;;;;;;1887262;76;21162;-77
2022/07/03 01:08:04;;;;;;;2.20;1.67;;;21.80;99.90;;;;;;1862203;76;21094;-76
2022/07/03 01:11:01;;;;;;;2.33;1.72;;;21.90;99.90;;;;;;1902376;74;21118;-77
2022/07/03 01:14:00;;;;;;;2.87;1.67;;;22.00;99.90;;;;;;1905946;75;21066;-77
2022/07/03 01:16:56;;;;;;;1.62;1.37;;;22.10;99.90;;;;;;1906214;75;21308;-76
2022/07/03 01:19:50;;;;;;;2.05;1.40;;;22.10;99.90;;;;;;1903663;75;21051;-76
2022/07/03 01:22:45;;;;;;;2.98;1.40;;;22.20;99.90;;;;;;1898716;75;21047;-76
2022/07/03 01:25:44;;;;;;;2.83;1.40;;;22.20;99.90;;;;;;1894891;75;21180;-76
2022/07/03 01:28:38;;;;;;;2.58;1.50;;;22.20;99.90;;;;;;1895108;75;21051;-76
2022/07/03 01:31:31;;;;;;;4.65;2.80;;;22.20;99.90;;;;;;1895091;75;21118;-77
2022/07/03 01:34:25;;;;;;;5.50;3.70;;;22.20;99.90;;;;;;1897991;75;21063;-76
2022/07/03 01:37:19;;;;;;;5.95;4.05;;;22.20;99.90;;;;;;1898867;75;21483;-77
2022/07/03 01:40:11;;;;;;;3.35;2.60;;;22.20;99.90;;;;;;1894939;75;21055;-76
2022/07/03 01:43:05;;;;;;;3.98;3.37;;;22.30;99.90;;;;;;1894683;75;21178;-77
2022/07/03 01:45:58;;;;;;;4.62;3.40;;;22.30;99.90;;;;;;1916743;75;21050;-77
2022/07/03 01:48:50;;;;;;;9.80;3.85;;;22.30;99.90;;;;;;1888605;75;21117;-77
2022/07/03 01:51:44;;;;;;;4.85;3.10;;;22.30;99.90;;;;;;1905317;75;21137;-77
2022/07/03 01:54:36;;;;;;;5.15;2.83;;;22.20;99.90;;;;;;1906368;75;21136;-77
2022/07/03 01:57:31;;;;;;;5.80;3.60;;;22.10;99.90;;;;;;1905972;75;21459;-77
2022/07/03 02:00:23;;;;;;;4.10;3.62;;;22.20;99.90;;;;;;1890908;75;21103;-76
2022/07/03 02:03:18;;;;;;;4.33;3.10;;;22.20;99.90;;;;;;1885523;74;21102;-77
2022/07/03 02:06:12;;;;;;;3.60;3.15;;;22.10;99.90;;;;;;1919257;73;21606;-77
2022/07/03 02:09:07;;;;;;;4.55;2.60;;;22.10;99.90;;;;;;1880331;75;21165;-76
2022/07/03 02:12:01;;;;;;;4.50;2.80;;;22.10;99.90;;;;;;1895191;74;21139;-76
2022/07/03 02:14:56;;;;;;;3.02;2.60;;;22.10;99.90;;;;;;1899922;75;21054;-76
2022/07/03 02:17:48;;;;;;;3.75;1.90;;;22.10;99.90;;;;;;1914544;74;21185;-77
2022/07/03 02:20:42;;;;;;;2.47;2.10;;;22.10;99.90;;;;;;1910954;74;21575;-77
2022/07/03 02:23:38;;;;;;;4.05;1.95;;;22.10;99.90;;;;;;1905865;74;21122;-76
2022/07/03 02:26:33;;;;;;;2.90;1.50;;;22.00;99.90;;;;;;1921831;74;21150;-77
2022/07/03 02:29:32;;;;;;;3.52;1.65;;;22.00;99.90;;;;;;1918815;74;21055;-76
2022/07/03 02:32:26;;;;;;;4.53;1.60;;;21.90;99.90;;;;;;1917898;74;21109;-77
2022/07/03 02:35:19;;;;;;;2.67;1.75;;;22.00;99.90;;;;;;1922344;74;21089;-77
2022/07/03 02:38:13;;;;;;;2.62;1.22;;;21.90;99.90;;;;;;1904481;74;21631;-76
2022/07/03 02:41:09;;;;;;;2.33;1.37;;;21.90;99.90;;;;;;1910711;74;21063;-76
2022/07/03 02:44:04;;;;;;;2.80;1.35;;;21.90;99.90;;;;;;1917556;74;21130;-77
2022/07/03 02:47:06;;;;;;;2.85;1.60;;;21.90;99.90;;;;;;1912992;74;21097;-76
2022/07/03 02:50:05;;;;;;;2.00;1.62;;;21.90;99.90;;;;;;1900853;74;21054;-77
2022/07/03 02:53:02;;;;;;;1.85;1.47;;;21.80;99.90;;;;;;1922364;74;21097;-77
2022/07/03 02:55:57;;;;;;;1.85;1.40;;;21.80;99.90;;;;;;1922524;74;21054;-76
2022/07/03 02:59:03;;;;;;;2.95;1.77;;;21.80;99.90;;;;;;1899976;75;21083;-77
2022/07/03 03:01:58;;;;;;;5.03;1.75;;;21.60;99.90;;;;;;1918128;74;21090;-76
2022/07/03 03:04:52;;;;;;;3.67;1.30;;;21.50;99.90;;;;;;1925778;73;21120;-76
2022/07/03 03:07:49;;;;;;;2.10;1.10;;;21.50;99.90;;;;;;1910799;74;21062;-76
2022/07/03 03:10:41;;;;;;;3.27;1.20;;;21.50;99.90;;;;;;1921783;74;21054;-77
2022/07/03 03:13:33;;;;;;;1.90;1.20;;;21.50;99.90;;;;;;1922703;74;21179;-76
2022/07/03 03:16:24;;;;;;;2.37;1.30;;;21.60;99.90;;;;;;1915212;74;21058;-76
2022/07/03 03:19:18;;;;;;;1.75;1.10;;;21.60;99.90;;;;;;1912370;74;21086;-77
2022/07/03 03:22:13;;;;;;;3.42;1.20;;;21.60;99.90;;;;;;1922097;74;21124;-77
2022/07/03 03:25:05;;;;;;;1.77;1.42;;;21.50;99.90;;;;;;1922163;74;21047;-76
2022/07/03 03:27:57;;;;;;;2.45;1.82;;;21.50;99.90;;;;;;1899993;75;21164;-76
2022/07/03 03:30:49;;;;;;;3.15;1.35;;;21.40;99.90;;;;;;1914919;74;21051;-77
2022/07/03 03:33:45;;;;;;;2.15;1.60;;;21.30;99.90;;;;;;1910906;74;21170;-77
2022/07/03 03:36:37;;;;;;;2.58;1.30;;;21.30;99.90;;;;;;1910738;74;21091;-77
2022/07/03 03:39:29;;;;;;;1.75;1.50;;;21.40;99.90;;;;;;1911000;74;21054;-77
2022/07/03 03:42:20;;;;;;;1.87;1.42;;;21.40;99.90;;;;;;1915479;74;21098;-77
2022/07/03 03:45:13;;;;;;;2.20;1.20;;;21.30;99.90;;;;;;1912134;74;21047;-77
2022/07/03 03:48:05;;;;;;;2.75;1.50;;;21.20;99.90;;;;;;1910534;74;21091;-77
2022/07/03 03:50:56;;;;;;;2.65;1.40;;;21.20;99.90;;;;;;1910824;74;21135;-76
2022/07/03 03:53:48;;;;;;;1.57;1.35;;;21.10;99.90;;;;;;1913818;74;21086;-76
2022/07/03 03:56:41;;;;;;;2.67;1.22;;;21.10;99.90;;;;;;1914623;74;21069;-77
2022/07/03 03:59:33;;;;;;;2.02;1.40;;;21.00;99.90;;;;;;1923627;74;21155;-76
2022/07/03 04:02:25;;;;;;;1.77;1.40;;;21.00;99.90;;;;;;1922179;74;21506;-77
2022/07/03 04:05:16;;;;;;;1.20;1.10;;;21.00;99.90;;;;;;1926003;73;21184;-77
2022/07/03 04:08:08;;;;;;;2.98;1.57;;;21.00;99.90;;;;;;1910856;73;21098;-77
2022/07/03 04:10:59;;;;;;;1.98;1.15;;;21.10;99.90;;;;;;1903505;74;21200;-76
2022/07/03 04:13:51;;;;;;;1.65;1.30;;;21.20;99.90;;;;;;1903798;74;21210;-76
2022/07/03 04:16:42;;;;;;;3.12;1.52;;;21.30;99.90;;;;;;1905271;74;21517;-76
2022/07/03 04:19:34;;;;;;;2.47;1.30;;;21.30;99.90;;;;;;1909379;74;21106;-76
2022/07/03 04:22:25;;;;;;;5.15;1.70;;;21.30;99.90;;;;;;1904454;74;21145;-76
2022/07/03 04:25:16;;;;;;;2.10;1.42;;;21.20;99.90;;;;;;1915660;74;21236;-76
2022/07/03 04:28:07;;;;;;;4.55;1.70;;;21.20;99.90;;;;;;1915477;74;21055;-77
2022/07/03 04:31:00;;;;;;;2.05;1.30;;;21.30;99.90;;;;;;1911092;74;21162;-76
2022/07/03 04:33:52;;;;;;;2.72;1.12;;;21.30;99.90;;;;;;1906289;74;21289;-77
2022/07/03 04:36:43;;;;;;;3.27;1.82;;;21.30;99.90;;;;;;1904204;74;21102;-76
2022/07/03 04:39:34;;;;;;;3.92;1.87;;;21.20;99.90;;;;;;1904371;74;21150;-76
2022/07/03 04:42:26;;;;;;;4.53;2.08;;;21.30;99.90;;;;;;1907843;74;21519;-76
2022/07/03 04:45:17;;;;;;;2.85;1.27;;;21.30;99.90;;;;;;1907027;74;21526;-76
2022/07/03 04:48:09;;;;;;;1.60;1.30;;;21.30;99.90;;;;;;1904174;74;21085;-76
2022/07/03 04:51:00;;;;;;;2.72;1.45;;;21.30;99.90;;;;;;1901053;74;21060;-76
2022/07/03 04:53:51;;;;;;;1.72;1.40;;;21.30;99.90;;;;;;1893580;76;21045;-76
2022/07/03 04:56:43;;;;;;;2.92;1.80;;;21.30;99.90;;;;;;1909169;74;21134;-76
2022/07/03 04:59:35;;;;;;;2.00;1.40;;;21.30;99.90;;;;;;1904514;74;21102;-77
2022/07/03 05:02:26;;;;;;;2.25;1.40;;;21.30;99.90;;;;;;1900651;74;21105;-76
2022/07/03 05:05:17;;;;;;;2.00;1.57;;;21.40;99.90;;;;;;1927500;73;21098;-76
2022/07/03 05:08:09;;;;;;;1.50;1.20;;;21.40;99.90;;;;;;1910870;73;21124;-76
2022/07/03 05:11:03;;;;;;;3.05;1.30;;;21.50;99.90;;;;;;1903831;75;21101;-76
2022/07/03 05:13:54;;;;;;;1.75;1.30;;;21.60;99.90;;;;;;1915241;74;21344;-76
2022/07/03 05:16:46;;;;;;;2.58;1.35;;;21.70;99.90;;;;;;1884796;76;21173;-76
2022/07/03 05:19:39;;;;;;;2.25;1.45;;;21.80;99.90;;;;;;1864195;76;21134;-76
2022/07/03 05:22:31;;;;;;;2.87;1.30;;;21.80;99.90;;;;;;1895808;75;21102;-76
2022/07/03 05:25:22;;;;;;;3.10;1.12;;;21.80;99.90;;;;;;1888541;75;21201;-76
2022/07/03 05:28:13;;;;;;;3.55;1.47;;;21.80;99.90;;;;;;1906105;75;21122;-77
2022/07/03 05:31:05;;;;;;;2.08;1.42;;;21.90;99.90;;;;;;1902207;75;21164;-76
2022/07/03 05:33:57;;;;;;;3.02;1.50;;;21.90;99.90;;;;;;1897104;75;21174;-76
2022/07/03 05:36:49;;;;;;;1.75;1.20;;;22.00;99.90;;;;;;1894977;75;21645;-77
2022/07/03 05:39:40;;;;;;;2.27;1.45;;;22.00;99.90;;;;;;1892329;75;21056;-76
2022/07/03 05:42:32;;;;;;;3.05;1.40;;;22.10;99.90;;;;;;1902898;75;21076;-76
2022/07/03 05:45:23;;;;;;;1.85;1.30;;;22.20;99.90;;;;;;1897444;75;21031;-76
2022/07/03 05:48:14;;;;;;;3.05;1.30;;;22.30;99.90;;;;;;1894815;75;21139;-76
2022/07/03 05:51:06;;;;;;;3.00;1.75;;;22.30;99.90;;;;;;1894658;75;21083;-76
2022/07/03 05:53:58;;;;;;;3.45;1.72;;;22.20;99.90;;;;;;1898006;75;21094;-77
2022/07/03 05:56:49;;;;;;;1.25;1.15;;;22.20;99.90;;;;;;1884392;76;21136;-76
2022/07/03 05:59:40;;;;;;;1.92;1.37;;;22.20;99.90;;;;;;1905959;75;21178;-76
2022/07/03 06:02:32;;;;;;;2.72;1.45;;;22.10;99.90;;;;;;1904293;75;21067;-76
2022/07/03 06:05:23;;;;;;;2.72;1.20;;;22.10;99.90;;;;;;1889942;73;21694;-76
2022/07/03 06:08:15;;;;;;;1.72;1.40;;;22.10;99.90;;;;;;1903287;73;21164;-76
2022/07/03 06:11:06;;;;;;;2.87;1.30;;;22.20;99.90;;;;;;1895262;75;21036;-76
2022/07/03 06:13:57;;;;;;;2.62;1.40;;;22.30;99.90;;;;;;1894191;75;21098;-76
2022/07/03 06:16:49;;;;;;;4.50;1.57;;;22.30;99.90;;;;;;1900109;74;21191;-76
2022/07/03 06:19:40;;;;;;;3.62;1.22;;;22.30;99.90;;;;;;1925787;74;21046;-76
2022/07/03 06:22:32;;;;;;;2.70;1.10;;;22.40;99.90;;;;;;1905242;74;21091;-76
2022/07/03 06:25:23;;;;;;;2.30;1.30;;;22.40;99.90;;;;;;1903994;74;21129;-76
2022/07/03 06:28:15;;;;;;;2.35;1.27;;;22.40;99.90;;;;;;1903925;74;21094;-76
2022/07/03 06:31:06;;;;;;;1.30;1.20;;;22.50;99.90;;;;;;1907532;74;21133;-76
2022/07/03 06:33:58;;;;;;;1.77;1.10;;;22.70;99.90;;;;;;1907309;74;21566;-76
2022/07/03 06:36:49;;;;;;;1.72;1.07;;;22.80;99.90;;;;;;1904295;74;21059;-76
2022/07/03 06:39:40;;;;;;;2.67;1.30;;;22.90;99.90;;;;;;1901557;74;21193;-76
2022/07/03 06:42:32;;;;;;;2.27;1.12;;;23.10;99.90;;;;;;1913614;74;21140;-76
2022/07/03 06:45:25;;;;;;;2.72;1.37;;;23.30;99.90;;;;;;1908404;74;21158;-76
2022/07/03 06:48:16;;;;;;;1.65;1.30;;;23.40;99.90;;;;;;1904214;74;21106;-77
2022/07/03 06:51:07;;;;;;;2.00;1.30;;;23.50;99.90;;;;;;1904829;74;21142;-76
2022/07/03 06:53:59;;;;;;;2.33;1.20;;;23.60;99.90;;;;;;1926600;74;21123;-76
2022/07/03 06:56:50;;;;;;;3.17;1.30;;;23.70;99.90;;;;;;1911022;74;21047;-77
2022/07/03 06:59:42;;;;;;;2.98;1.20;;;23.70;99.90;;;;;;1915560;74;21122;-77
2022/07/03 07:02:34;;;;;;;3.60;1.10;;;23.80;99.90;;;;;;1915083;74;21193;-76
2022/07/03 07:05:25;;;;;;;2.25;1.40;;;23.80;99.90;;;;;;1915496;74;21451;-76
2022/07/03 07:08:16;;;;;;;1.72;1.02;;;23.90;99.90;;;;;;1893425;76;21085;-76
2022/07/03 07:11:08;;;;;;;1.92;1.12;;;24.00;99.90;;;;;;1905888;74;21063;-76
2022/07/03 07:16:38;;;;;;;1.70;1.40;;;24.00;99.90;;;;;;1945334;72;22240;-76
2022/07/03 07:22:09;;;;;;;1.67;1.25;;;24.10;99.90;;;;;;1945034;72;22232;-76
2022/07/03 07:25:00;;;;;;;2.65;1.17;;;24.20;99.90;;;;;;1887174;75;21121;-77
2022/07/03 07:27:51;;;;;;;1.25;1.10;;;24.20;99.90;;;;;;1897942;73;21053;-78
2022/07/03 07:30:43;;;;;;;2.60;1.20;;;24.30;99.90;;;;;;1898432;75;21059;-77
2022/07/03 07:33:34;;;;;;;4.62;1.20;;;24.50;99.90;;;;;;1895114;75;21917;-77
2022/07/03 07:36:25;;;;;;;8.33;1.67;;;24.60;99.90;;;;;;1895086;75;21526;-78
2022/07/03 07:39:16;;;;;;;2.95;1.50;;;24.70;99.90;;;;;;1897140;75;21132;-78
2022/07/03 07:42:08;;;;;;;2.25;1.22;;;24.80;99.90;;;;;;1884332;75;21061;-78
2022/07/03 07:44:59;;;;;;;3.92;1.32;;;24.80;99.90;;;;;;1906211;75;21152;-79
2022/07/03 07:47:51;;;;;;;1.75;1.07;;;25.00;99.90;;;;;;1884442;76;21169;-79
2022/07/03 07:50:42;;;;;;;1.50;1.20;;;25.10;99.90;;;;;;1905488;75;21223;-78
2022/07/03 07:53:34;;;;;;;1.80;1.10;;;25.20;99.90;;;;;;1900470;75;21149;-78
2022/07/03 07:56:25;;;;;;;2.15;1.30;;;25.30;99.90;;;;;;1895581;75;21511;-78
2022/07/03 07:59:16;;;;;;;2.60;1.20;;;25.30;99.90;;;;;;1895531;75;21131;-78
2022/07/03 08:08:26;;;;;;;1.70;1.17;;;25.30;99.90;;;;;;1904126;73;21110;-78
2022/07/03 08:11:17;;;;;;;1.65;1.00;;;25.50;99.90;;;;;;1897662;75;21183;-78
2022/07/03 08:14:10;;;;;;;2.15;1.00;;;25.60;99.90;;;;;;1899366;73;21141;-78
2022/07/03 08:17:01;;;;;;;2.15;1.10;;;25.70;99.90;;;;;;1895357;75;21163;-78
2022/07/03 08:19:52;;;;;;;5.62;1.20;;;25.70;99.90;;;;;;1897115;75;21176;-78
2022/07/03 08:22:44;;;;;;;1.45;1.35;;;25.90;99.90;;;;;;1889351;75;21118;-78
2022/07/03 08:25:35;;;;;;;2.17;1.30;;;26.00;99.90;;;;;;1917414;75;21098;-78
2022/07/03 08:28:32;;;;;;;2.47;1.50;;;26.10;99.90;;;;;;1889170;73;21169;-78
2022/07/03 08:31:23;;;;;;;2.85;1.40;;;26.20;99.90;;;;;;1873268;75;21172;-78
2022/07/03 08:34:16;;;;;;;1.10;0.98;;;26.20;99.90;;;;;;1887091;75;21088;-78
2022/07/03 08:37:07;;;;;;;2.95;1.52;;;26.30;99.90;;;;;;1871873;77;21063;-78
2022/07/03 08:39:59;;;;;;;2.15;1.02;;;26.40;99.90;;;;;;1900900;75;21071;-78
2022/07/03 08:42:52;;;;;;;4.42;1.25;;;26.40;99.90;;;;;;1882378;75;21047;-78
2022/07/03 08:45:45;;;;;;;1.55;1.30;;;26.50;99.90;;;;;;1897412;75;21165;-78
2022/07/03 08:48:36;;;;;;;2.87;1.30;;;26.50;99.90;;;;;;1898085;75;21055;-77
2022/07/03 08:51:28;;;;;;;2.40;1.45;;;26.60;99.90;;;;;;1908089;75;21150;-77
2022/07/03 08:54:19;;;;;;;1.35;1.05;;;26.70;99.90;;;;;;1906005;75;21047;-78
2022/07/03 08:57:12;;;;;;;2.85;1.27;;;26.80;99.90;;;;;;1904371;75;21194;-78
2022/07/03 09:00:06;;;;;;;1.50;1.37;;;26.90;99.90;;;;;;1899650;75;21055;-78
2022/07/03 09:03:00;;;;;;;1.77;1.15;;;27.00;99.90;;;;;;1884156;75;21562;-78
2022/07/03 09:05:53;;;;;;;3.30;1.25;;;27.10;99.90;;;;;;1895099;74;21609;-78
2022/07/03 09:08:45;;;;;;;1.42;1.10;;;27.10;99.90;;;;;;1930154;73;21163;-78
2022/07/03 09:11:37;;;;;;;2.02;1.40;;;27.20;99.90;;;;;;1891207;75;21117;-78
2022/07/03 09:14:29;;;;;;;1.50;1.30;;;27.30;99.90;;;;;;1897153;73;21090;-78
2022/07/03 09:17:21;;;;;;;1.37;1.10;;;27.40;99.90;;;;;;1894742;75;21668;-78
2022/07/03 09:20:12;;;;;;;1.35;1.20;;;27.40;99.90;;;;;;1894481;75;21176;-78
2022/07/03 09:23:15;;;;;;;1.95;1.12;;;27.50;99.90;;;;;;1905054;75;21175;-78
2022/07/03 09:26:07;;;;;;;1.92;1.22;;;27.60;99.90;;;;;;1917317;74;21152;-78
2022/07/03 09:28:58;;;;;;;1.57;1.10;;;27.70;99.90;;;;;;1911485;74;21218;-78
2022/07/03 09:31:56;;;;;;;2.37;1.12;;;27.80;99.90;;;;;;1910713;74;21224;-78
2022/07/03 09:34:48;;;;;;;3.67;1.20;;;27.80;99.90;;;;;;1907483;74;21066;-78
2022/07/03 09:37:40;;;;;;;2.22;1.20;;;27.90;99.90;;;;;;1919705;74;21172;-78
2022/07/03 09:40:48;;;;;;;2.05;1.00;;;28.00;99.90;;;;;;1914019;74;21220;-78
2022/07/03 09:43:43;;;;;;;3.55;1.12;;;28.00;99.90;;;;;;1912153;73;21577;-78
2022/07/03 09:46:34;;;;;;;1.50;1.10;;;28.10;99.90;;;;;;1924619;74;21128;-78
2022/07/03 09:49:26;;;;;;;1.65;1.30;;;28.20;99.90;;;;;;1902784;74;21505;-78
2022/07/03 09:52:38;;;;;;;1.20;1.10;;;28.30;99.90;;;;;;1912908;74;21513;-78
2022/07/03 09:55:29;;;;;;;2.80;1.10;;;28.30;99.90;;;;;;1899786;75;21102;-78
2022/07/03 09:58:21;;;;;;;1.17;1.07;;;28.30;99.90;;;;;;1913317;73;21172;-78
2022/07/03 10:01:19;;;;;;;1.40;0.98;;;28.30;99.90;;;;;;1910581;74;21557;-78
2022/07/03 10:04:16;;;;;;;1.62;1.30;;;28.40;99.90;;;;;;1910557;74;21108;-78
2022/07/03 10:07:07;;;;;;;1.40;1.10;;;28.50;99.90;;;;;;1925897;73;21198;-78
2022/07/03 10:09:59;;;;;;;2.58;1.05;;;28.50;99.90;;;;;;1899087;75;21104;-78
2022/07/03 10:12:51;;;;;;;2.27;1.20;;;28.70;99.90;;;;;;1898941;73;21131;-78
2022/07/03 10:15:44;;;;;;;2.00;1.10;;;28.80;99.90;;;;;;1899069;75;21216;-78
2022/07/03 10:18:38;;;;;;;2.35;1.20;;;28.80;99.90;;;;;;1921774;74;21150;-78
2022/07/03 10:21:30;;;;;;;1.45;1.07;;;28.90;99.90;;;;;;1919357;74;21547;-79
2022/07/03 10:24:27;;;;;;;3.95;1.10;;;29.00;99.90;;;;;;1906347;74;21071;-77
2022/07/03 10:27:19;;;;;;;2.05;1.10;;;29.00;99.90;;;;;;1905907;75;21047;-78
2022/07/03 10:30:13;;;;;;;1.07;0.95;;;29.10;99.90;;;;;;1882314;76;21530;-78
2022/07/03 10:33:04;;;;;;;1.00;0.80;;;29.10;99.90;;;;;;1877585;76;21480;-78
2022/07/03 10:35:57;;;;;;;2.60;1.17;;;29.20;99.90;;;;;;1900007;75;21112;-78
2022/07/03 10:38:52;;;;;;;2.90;1.00;;;29.40;99.90;;;;;;1916555;75;21180;-78
2022/07/03 10:45:08;;;;;;;1.52;1.00;;;29.50;99.90;;;;;;1894151;75;21514;-77
2022/07/03 10:47:59;;;;;;;2.10;1.10;;;29.70;99.90;;;;;;1892346;75;21089;-78
2022/07/03 10:51:00;;;;;;;1.67;1.20;;;30.00;99.90;;;;;;1896453;75;21631;-78
2022/07/03 10:53:51;;;;;;;3.22;1.27;;;30.10;99.90;;;;;;1883845;76;21115;-78
2022/07/03 10:57:10;;;;;;;3.02;1.10;;;30.20;99.90;;;;;;1895340;75;21051;-78
2022/07/03 11:00:17;;;;;;;1.75;1.10;;;30.20;99.90;;;;;;1896668;75;21106;-78
2022/07/03 11:03:09;;;;;;;2.17;1.17;;;30.20;99.90;;;;;;1897537;75;21165;-78
2022/07/03 11:06:00;;;;;;;1.42;1.07;;;30.20;99.90;;;;;;1894749;75;21047;-79
2022/07/03 11:09:05;;;;;;;1.52;1.00;;;30.30;99.90;;;;;;1931517;73;21163;-78
2022/07/03 11:11:57;;;;;;;1.95;1.20;;;30.30;99.90;;;;;;1891262;73;21099;-78
2022/07/03 11:14:52;;;;;;;1.12;1.00;;;30.30;99.90;;;;;;1898985;75;21137;-78
2022/07/03 11:17:51;;;;;;;1.42;1.15;;;30.20;99.90;;;;;;1895168;75;21172;-78
2022/07/03 11:21:05;;;;;;;2.47;1.10;;;30.20;99.90;;;;;;1907353;75;21301;-79
2022/07/03 11:24:41;;;;;;;1.98;0.80;;;30.20;99.90;;;;;;1901767;75;21100;-78
2022/07/03 11:27:37;;;;;;;2.60;0.90;;;30.20;99.90;;;;;;1891440;75;21151;-79
2022/07/03 11:30:29;;;;;;;3.72;1.10;;;30.20;99.90;;;;;;1902772;75;21073;-78
2022/07/03 11:33:44;;;;;;;1.67;1.10;;;30.30;99.90;;;;;;1903231;75;21085;-78
2022/07/03 11:36:37;;;;;;;2.17;0.90;;;30.50;99.90;;;;;;1903138;75;21628;-78
2022/07/03 11:39:30;;;;;;;1.12;1.02;;;30.80;99.90;;;;;;1903664;75;21498;-78
2022/07/03 11:42:22;;;;;;;0.95;0.80;;;30.90;98.50;;;;;;1912393;73;21050;-78
2022/07/03 11:45:17;;;;;;;2.70;0.88;;;31.00;97.10;;;;;;1894555;75;21790;-78
2022/07/03 11:48:13;;;;;;;1.20;0.90;;;30.90;96.20;;;;;;1891622;75;21163;-78
2022/07/03 11:51:16;;;;;;;1.30;0.85;;;31.10;95.10;;;;;;1891710;75;21176;-78
2022/07/03 11:54:09;;;;;;;1.37;0.80;;;31.10;95.20;;;;;;1902933;75;21062;-79
2022/07/03 11:57:02;;;;;;;1.17;1.00;;;31.30;95.70;;;;;;1899241;75;21062;-79
2022/07/03 11:59:56;;;;;;;2.50;0.95;;;31.40;96.30;;;;;;1856282;76;21146;-79
2022/07/03 12:02:53;;;;;;;1.37;0.98;;;31.50;96.40;;;;;;1903087;75;21469;-79
2022/07/03 12:05:57;;;;;;;1.20;0.83;;;31.40;96.90;;;;;;1903189;75;21098;-79
2022/07/03 12:08:50;;;;;;;1.52;0.95;;;31.50;92.50;;;;;;1904103;73;21234;-79
2022/07/03 12:11:45;;;;;;;1.98;1.00;;;31.70;93.30;;;;;;1905223;73;21122;-79
2022/07/03 12:14:48;;;;;;;1.77;0.90;;;31.70;95.50;;;;;;1895618;73;21595;-79
2022/07/03 12:17:44;;;;;;;2.45;0.90;;;31.80;95.20;;;;;;1892782;75;21050;-79
2022/07/03 12:20:37;;;;;;;2.70;0.98;;;31.90;95.80;;;;;;1892061;75;21065;-79
2022/07/03 12:23:34;;;;;;;4.70;1.10;;;31.90;94.80;;;;;;1891692;75;21503;-79
2022/07/03 12:26:34;;;;;;;1.40;0.85;;;32.00;95.20;;;;;;1887724;74;21213;-79
2022/07/03 12:29:29;;;;;;;2.08;0.90;;;31.90;93.80;;;;;;1901189;75;21099;-79
2022/07/03 12:32:25;;;;;;;1.40;0.70;;;31.80;93.70;;;;;;1876416;75;21655;-78
2022/07/03 12:35:25;;;;;;;1.50;1.15;;;31.90;92.50;;;;;;1896007;75;21139;-79
2022/07/03 12:38:35;;;;;;;2.87;0.95;;;32.00;90.80;;;;;;1899320;75;21048;-78
2022/07/03 12:41:32;;;;;;;1.45;0.80;;;32.00;90.90;;;;;;1882414;75;21153;-79
2022/07/03 12:44:29;;;;;;;2.27;0.80;;;32.00;89.50;;;;;;1887634;75;21179;-79
2022/07/03 12:47:22;;;;;;;2.00;0.90;;;32.10;89.30;;;;;;1898229;75;21125;-79
2022/07/03 12:50:19;;;;;;;1.82;0.82;;;32.10;88.30;;;;;;1897870;75;21205;-79
2022/07/03 12:53:14;;;;;;;1.25;0.90;;;32.10;85.70;;;;;;1894678;75;21113;-79
2022/07/03 12:56:11;;;;;;;0.90;0.80;;;32.00;86.20;;;;;;1894457;75;21181;-79
2022/07/03 12:59:19;;;;;;;1.20;0.90;;;32.10;86.10;;;;;;1913824;75;21051;-79
2022/07/03 13:02:13;;;;;;;1.50;0.90;;;32.20;86.20;;;;;;1862292;75;21086;-79
2022/07/03 13:05:25;;;;;;;2.00;1.00;;;32.40;84.90;;;;;;1899314;75;21101;-79
2022/07/03 13:08:37;;;;;;;1.25;0.93;;;32.50;85.40;;;;;;1901818;74;21078;-79
2022/07/03 13:11:38;;;;;;;2.98;0.82;;;32.50;84.00;;;;;;1908450;75;21546;-79
2022/07/03 13:14:35;;;;;;;4.78;0.90;;;32.60;81.40;;;;;;1885544;74;21043;-79
2022/07/03 13:18:05;;;;;;;1.12;0.80;;;32.70;79.10;;;;;;1873602;75;21101;-78
2022/07/03 13:20:59;;;;;;;2.40;1.00;;;32.70;77.90;;;;;;1883952;75;21616;-78
2022/07/03 13:23:50;;;;;;;1.20;0.93;;;32.60;77.90;;;;;;1890167;75;21166;-78
2022/07/03 13:26:41;;;;;;;1.62;0.98;;;32.80;79.10;;;;;;1894616;75;21144;-78
2022/07/03 13:29:32;;;;;;;2.35;1.00;;;32.90;79.50;;;;;;1904409;73;21055;-78
2022/07/03 13:32:23;;;;;;;2.02;1.20;;;32.90;79.80;;;;;;1897933;75;21217;-79
2022/07/03 13:35:15;;;;;;;2.15;1.07;;;33.00;79.10;;;;;;1901937;75;21142;-78
2022/07/03 13:38:06;;;;;;;3.92;1.10;;;33.10;79.80;;;;;;1891800;75;21098;-78
2022/07/03 13:40:57;;;;;;;4.72;1.10;;;33.30;78.70;;;;;;1903583;75;21112;-78
2022/07/03 13:43:48;;;;;;;4.03;1.40;;;33.30;78.80;;;;;;1895723;75;21204;-79
2022/07/03 13:46:39;;;;;;;2.00;1.20;;;33.20;79.30;;;;;;1906086;75;21063;-79
2022/07/03 13:49:30;;;;;;;1.67;1.20;;;33.20;80.30;;;;;;1906020;75;21036;-78
2022/07/03 13:52:21;;;;;;;3.55;1.20;;;33.60;81.10;;;;;;1888436;75;21090;-79
2022/07/03 13:55:13;;;;;;;3.30;1.20;;;33.60;82.10;;;;;;1888365;75;21084;-79
2022/07/03 13:58:06;;;;;;;1.35;1.17;;;33.70;81.50;;;;;;1894862;75;21143;-79
2022/07/03 14:00:58;;;;;;;2.25;1.17;;;33.70;81.00;;;;;;1906732;75;21079;-79
2022/07/03 14:03:50;;;;;;;4.60;1.27;;;33.90;82.00;;;;;;1889983;75;21082;-79
2022/07/03 14:06:42;;;;;;;3.02;1.30;;;34.20;82.80;;;;;;1890723;75;21181;-79
2022/07/03 14:09:33;;;;;;;1.92;1.30;;;34.10;84.60;;;;;;1879524;75;21090;-80
2022/07/03 14:12:24;;;;;;;2.52;1.20;;;34.00;86.20;;;;;;1937205;73;21176;-80
2022/07/03 14:15:15;;;;;;;3.70;1.40;;;34.10;86.90;;;;;;1893933;75;21099;-79
2022/07/03 14:18:07;;;;;;;1.77;1.17;;;34.30;87.30;;;;;;1897962;75;21513;-80
2022/07/03 14:20:58;;;;;;;2.30;1.20;;;34.40;89.30;;;;;;1893837;75;21098;-79
2022/07/03 14:23:49;;;;;;;2.55;1.30;;;34.60;89.20;;;;;;1909449;75;21180;-79
2022/07/03 14:32:58;;;;;;;2.85;1.22;;;34.80;88.20;;;;;;1884748;75;21138;-79
2022/07/03 14:35:50;;;;;;;1.77;1.40;;;35.00;84.40;;;;;;1882226;75;21169;-79
2022/07/03 14:38:41;;;;;;;1.40;1.30;;;34.90;83.30;;;;;;1874043;75;21047;-79
2022/07/03 14:41:33;;;;;;;2.37;1.40;;;34.90;85.50;;;;;;1885159;75;21122;-80
2022/07/03 14:44:25;;;;;;;3.70;1.40;;;35.10;84.20;;;;;;1875760;75;21139;-79
2022/07/03 14:47:19;;;;;;;1.32;1.05;;;35.20;85.50;;;;;;1890396;75;21201;-80
2022/07/03 14:50:11;;;;;;;3.02;1.52;;;35.20;82.80;;;;;;1884333;75;21537;-79
2022/07/03 14:53:02;;;;;;;2.27;1.42;;;35.40;84.00;;;;;;1906112;75;21145;-79
2022/07/03 14:55:56;;;;;;;4.85;1.52;;;35.70;85.40;;;;;;1901689;75;21099;-80
2022/07/03 14:58:50;;;;;;;1.60;1.27;;;35.60;83.70;;;;;;1901937;75;21595;-79
2022/07/03 15:01:44;;;;;;;3.80;1.57;;;34.80;84.50;;;;;;1873631;75;21106;-79
2022/07/03 15:04:42;;;;;;;3.08;1.35;;;34.60;86.50;;;;;;1890326;75;21047;-78
2022/07/03 15:07:36;;;;;;;2.72;1.62;;;34.40;85.10;;;;;;1905426;75;21104;-79
2022/07/03 15:10:27;;;;;;;6.33;1.67;;;34.20;86.80;;;;;;1885805;74;21117;-79
2022/07/03 15:13:20;;;;;;;1.85;1.57;;;34.10;87.60;;;;;;1902175;73;21063;-79
2022/07/03 15:16:12;;;;;;;3.52;1.40;;;33.90;90.00;;;;;;1881279;75;21142;-79
2022/07/03 15:19:04;;;;;;;1.47;1.37;;;33.60;90.10;;;;;;1882231;75;21099;-80
2022/07/03 15:21:56;;;;;;;2.40;1.40;;;33.40;91.50;;;;;;1879777;75;21107;-80
2022/07/03 15:24:49;;;;;;;1.90;1.20;;;33.20;92.90;;;;;;1903775;75;21173;-80
2022/07/03 15:27:41;;;;;;;1.70;1.60;;;33.00;93.70;;;;;;1900431;73;21196;-80